Kezdőlap
METAR-TAF:

METAR-TAF

Repülőterek :

Tarawa, Kiribati

földrajzi szélesség: 01-21N, földrajzi hosszúság: 172-55E, magasság: 2 m

Jelenlegi meteorológiai megfigyelések

A jelentés 1 órával és 8 perccel ezelõtt készült, 07:00 UTC
Délkeleti szél 6 kt
Hőmérséklet 28°C
Páratartalom 79%
Légköri nyomás 1004 hPa
Látótávolság 10 km, vagy több
Kevés felhő 1900 lábon
Szórványos felhőzet 4000 lábon
Szakadozott felhőzet 30000 lábon

METAR: NGTA 230700Z 13006KT 9999 FEW019 SCT040 BKN300 28/24 Q1004

Idő: 22:08 (08:08 UTC)

Előrejelzés

A jelentés 2 órával és 41 perccel ezelõtt készült, 05:27 UTC
Az előrejelzés 23-én 06 óra UTC és 24-én 06 óra UTC között érvényes
Keleti szél 9 kt
Látótávolság 10 km, vagy több
Kevés felhő 1900 lábon
Szórványos felhőzet 4000 lábon

TAF: NGTA 230527Z 2306/2406 09009KT 9999 FEW019 SCT040

Meteorológiai megfigyelések és előrejelzések több, mint 4000 repülőtéren (METAR és TAF jelentéseket).

A térképen piros és sárga pontok jelzik az elérhető meteorológiai állomásokat.

Mozgassa az egeret a pont fölött, hogy megjelenjen az állomás neve.

Azután kattintson az időjárási megfigyelések és előrejelzések megtekintéséhez.

A térkép megváltoztatása: kattintson a fekete keresztel jelölt zöld gombra ráközelítéshez, a vonallal jelölt zöld gombra távolításhoz, vagy a zöld nyilakra a szomszédos térképek eléréséhez.


METAR-TAF: